sensor_id;sensor_type;location;lat;lon;timestamp;temperature;humidity
7576;DHT22;3829;50.798;4.358;2023-02-11T00:01:28;6.60;99.90
7576;DHT22;3829;50.798;4.358;2023-02-11T00:03:55;6.60;99.90
7576;DHT22;3829;50.798;4.358;2023-02-11T00:06:22;6.60;99.90
7576;DHT22;3829;50.798;4.358;2023-02-11T00:08:47;6.60;99.90
7576;DHT22;3829;50.798;4.358;2023-02-11T00:11:15;6.70;99.90
7576;DHT22;3829;50.798;4.358;2023-02-11T00:13:42;6.70;99.90
7576;DHT22;3829;50.798;4.358;2023-02-11T00:16:09;6.50;99.90
7576;DHT22;3829;50.798;4.358;2023-02-11T00:18:36;6.50;99.90
7576;DHT22;3829;50.798;4.358;2023-02-11T00:21:09;6.60;99.90
7576;DHT22;3829;50.798;4.358;2023-02-11T00:23:35;6.60;99.90
7576;DHT22;3829;50.798;4.358;2023-02-11T00:26:01;6.60;99.90
7576;DHT22;3829;50.798;4.358;2023-02-11T00:28:27;6.60;99.90
7576;DHT22;3829;50.798;4.358;2023-02-11T00:30:55;6.50;99.90
7576;DHT22;3829;50.798;4.358;2023-02-11T00:33:20;6.40;99.90
7576;DHT22;3829;50.798;4.358;2023-02-11T00:35:46;6.20;99.90
7576;DHT22;3829;50.798;4.358;2023-02-11T00:38:12;6.20;99.90
7576;DHT22;3829;50.798;4.358;2023-02-11T00:40:37;6.20;99.90
7576;DHT22;3829;50.798;4.358;2023-02-11T00:43:03;6.00;99.90
7576;DHT22;3829;50.798;4.358;2023-02-11T00:45:28;6.00;99.90
7576;DHT22;3829;50.798;4.358;2023-02-11T00:47:55;6.00;99.90
7576;DHT22;3829;50.798;4.358;2023-02-11T00:50:21;5.90;99.90
7576;DHT22;3829;50.798;4.358;2023-02-11T00:52:46;5.90;99.90
7576;DHT22;3829;50.798;4.358;2023-02-11T00:55:12;5.80;99.90
7576;DHT22;3829;50.798;4.358;2023-02-11T00:57:38;5.80;99.90
7576;DHT22;3829;50.798;4.358;2023-02-11T01:00:04;5.80;99.90
7576;DHT22;3829;50.798;4.358;2023-02-11T01:02:30;5.80;99.90
7576;DHT22;3829;50.798;4.358;2023-02-11T01:04:56;5.70;99.90
7576;DHT22;3829;50.798;4.358;2023-02-11T01:07:24;5.80;99.90
7576;DHT22;3829;50.798;4.358;2023-02-11T01:09:49;5.80;99.90
7576;DHT22;3829;50.798;4.358;2023-02-11T01:12:15;5.90;99.90
7576;DHT22;3829;50.798;4.358;2023-02-11T01:14:41;6.00;99.90
7576;DHT22;3829;50.798;4.358;2023-02-11T01:17:06;6.00;99.90
7576;DHT22;3829;50.798;4.358;2023-02-11T01:19:32;6.10;99.90
7576;DHT22;3829;50.798;4.358;2023-02-11T01:21:57;6.10;99.90
7576;DHT22;3829;50.798;4.358;2023-02-11T01:24:23;6.10;99.90
7576;DHT22;3829;50.798;4.358;2023-02-11T01:26:49;6.10;99.90
7576;DHT22;3829;50.798;4.358;2023-02-11T01:29:14;6.20;99.90
7576;DHT22;3829;50.798;4.358;2023-02-11T01:31:40;6.30;99.90
7576;DHT22;3829;50.798;4.358;2023-02-11T01:34:05;6.40;99.90
7576;DHT22;3829;50.798;4.358;2023-02-11T01:36:31;6.50;99.90
7576;DHT22;3829;50.798;4.358;2023-02-11T01:38:57;6.50;99.90
7576;DHT22;3829;50.798;4.358;2023-02-11T01:41:22;6.50;99.90
7576;DHT22;3829;50.798;4.358;2023-02-11T01:43:49;6.50;99.90
7576;DHT22;3829;50.798;4.358;2023-02-11T01:46:33;6.50;99.90
7576;DHT22;3829;50.798;4.358;2023-02-11T01:49:11;6.40;99.90
7576;DHT22;3829;50.798;4.358;2023-02-11T01:54:16;6.50;99.90
7576;DHT22;3829;50.798;4.358;2023-02-11T01:57:02;6.50;99.90
7576;DHT22;3829;50.798;4.358;2023-02-11T02:02:57;6.50;99.90
7576;DHT22;3829;50.798;4.358;2023-02-11T02:05:29;6.50;99.90
7576;DHT22;3829;50.798;4.358;2023-02-11T02:08:05;6.50;99.90
7576;DHT22;3829;50.798;4.358;2023-02-11T02:10:34;6.50;99.90
7576;DHT22;3829;50.798;4.358;2023-02-11T02:13:01;6.60;99.90
7576;DHT22;3829;50.798;4.358;2023-02-11T02:15:29;6.60;99.90
7576;DHT22;3829;50.798;4.358;2023-02-11T02:18:17;6.70;99.90
7576;DHT22;3829;50.798;4.358;2023-02-11T02:35:23;7.10;99.90
7576;DHT22;3829;50.798;4.358;2023-02-11T02:40:35;7.20;99.90
7576;DHT22;3829;50.798;4.358;2023-02-11T02:43:02;7.10;99.90
7576;DHT22;3829;50.798;4.358;2023-02-11T02:45:27;7.10;99.90
7576;DHT22;3829;50.798;4.358;2023-02-11T02:47:53;7.10;99.90
7576;DHT22;3829;50.798;4.358;2023-02-11T02:50:25;7.20;99.90
7576;DHT22;3829;50.798;4.358;2023-02-11T02:55:58;7.40;99.90
7576;DHT22;3829;50.798;4.358;2023-02-11T03:01:34;7.30;99.90
7576;DHT22;3829;50.798;4.358;2023-02-11T03:09:33;7.20;99.90
7576;DHT22;3829;50.798;4.358;2023-02-11T03:12:02;7.20;99.90
7576;DHT22;3829;50.798;4.358;2023-02-11T03:14:29;7.20;99.90
7576;DHT22;3829;50.798;4.358;2023-02-11T03:16:58;7.20;99.90
7576;DHT22;3829;50.798;4.358;2023-02-11T03:19:31;7.20;99.90
7576;DHT22;3829;50.798;4.358;2023-02-11T03:21:58;7.20;99.90
7576;DHT22;3829;50.798;4.358;2023-02-11T03:24:35;7.20;99.90
7576;DHT22;3829;50.798;4.358;2023-02-11T03:27:09;7.30;99.90
7576;DHT22;3829;50.798;4.358;2023-02-11T03:29:54;7.20;99.90
7576;DHT22;3829;50.798;4.358;2023-02-11T03:32:31;7.30;99.90
7576;DHT22;3829;50.798;4.358;2023-02-11T03:35:22;7.30;99.90
7576;DHT22;3829;50.798;4.358;2023-02-11T03:37:58;7.30;99.90
7576;DHT22;3829;50.798;4.358;2023-02-11T03:40:36;7.40;99.90
7576;DHT22;3829;50.798;4.358;2023-02-11T03:43:08;7.20;99.90
7576;DHT22;3829;50.798;4.358;2023-02-11T03:45:36;7.10;99.90
7576;DHT22;3829;50.798;4.358;2023-02-11T03:48:08;7.20;99.90
7576;DHT22;3829;50.798;4.358;2023-02-11T03:50:36;7.10;99.90
7576;DHT22;3829;50.798;4.358;2023-02-11T03:53:03;7.10;99.90
7576;DHT22;3829;50.798;4.358;2023-02-11T03:55:32;7.20;99.90
7576;DHT22;3829;50.798;4.358;2023-02-11T03:57:59;7.30;99.90
7576;DHT22;3829;50.798;4.358;2023-02-11T04:00:34;7.30;99.90
7576;DHT22;3829;50.798;4.358;2023-02-11T04:03:01;7.30;99.90
7576;DHT22;3829;50.798;4.358;2023-02-11T04:05:26;7.40;99.90
7576;DHT22;3829;50.798;4.358;2023-02-11T04:07:52;7.30;99.90
7576;DHT22;3829;50.798;4.358;2023-02-11T04:10:18;7.30;99.90
7576;DHT22;3829;50.798;4.358;2023-02-11T04:12:43;7.40;99.90
7576;DHT22;3829;50.798;4.358;2023-02-11T04:15:09;7.40;99.90
7576;DHT22;3829;50.798;4.358;2023-02-11T04:17:35;7.40;99.90
7576;DHT22;3829;50.798;4.358;2023-02-11T04:20:01;7.40;99.90
7576;DHT22;3829;50.798;4.358;2023-02-11T04:22:26;7.40;99.90
7576;DHT22;3829;50.798;4.358;2023-02-11T04:24:52;7.40;99.90
7576;DHT22;3829;50.798;4.358;2023-02-11T04:27:17;7.40;99.90
7576;DHT22;3829;50.798;4.358;2023-02-11T04:29:44;7.50;99.90
7576;DHT22;3829;50.798;4.358;2023-02-11T04:32:10;7.50;99.90
7576;DHT22;3829;50.798;4.358;2023-02-11T04:34:36;7.50;99.90
7576;DHT22;3829;50.798;4.358;2023-02-11T04:37:02;7.40;99.90
7576;DHT22;3829;50.798;4.358;2023-02-11T04:39:28;7.40;99.90
7576;DHT22;3829;50.798;4.358;2023-02-11T04:41:53;7.40;99.90
7576;DHT22;3829;50.798;4.358;2023-02-11T04:44:19;7.50;99.90
7576;DHT22;3829;50.798;4.358;2023-02-11T04:46:44;7.50;99.90
7576;DHT22;3829;50.798;4.358;2023-02-11T04:49:12;7.50;99.90
7576;DHT22;3829;50.798;4.358;2023-02-11T04:51:38;7.50;99.90
7576;DHT22;3829;50.798;4.358;2023-02-11T04:54:04;7.60;99.90
7576;DHT22;3829;50.798;4.358;2023-02-11T04:56:29;7.60;99.90
7576;DHT22;3829;50.798;4.358;2023-02-11T04:58:55;7.60;99.90
7576;DHT22;3829;50.798;4.358;2023-02-11T05:01:20;7.60;99.90
7576;DHT22;3829;50.798;4.358;2023-02-11T05:03:46;7.50;99.90
7576;DHT22;3829;50.798;4.358;2023-02-11T05:06:12;7.50;99.90
7576;DHT22;3829;50.798;4.358;2023-02-11T05:08:37;7.60;99.90
7576;DHT22;3829;50.798;4.358;2023-02-11T05:11:03;7.60;99.90
7576;DHT22;3829;50.798;4.358;2023-02-11T05:13:29;7.50;99.90
7576;DHT22;3829;50.798;4.358;2023-02-11T05:15:55;7.60;99.90
7576;DHT22;3829;50.798;4.358;2023-02-11T05:18:20;7.60;99.90
7576;DHT22;3829;50.798;4.358;2023-02-11T05:20:46;7.60;99.90
7576;DHT22;3829;50.798;4.358;2023-02-11T05:23:12;7.50;99.90
7576;DHT22;3829;50.798;4.358;2023-02-11T05:25:37;7.50;99.90
7576;DHT22;3829;50.798;4.358;2023-02-11T05:28:03;7.50;99.90
7576;DHT22;3829;50.798;4.358;2023-02-11T05:30:29;7.50;99.90
7576;DHT22;3829;50.798;4.358;2023-02-11T05:32:55;7.60;99.90
7576;DHT22;3829;50.798;4.358;2023-02-11T05:35:21;7.50;99.90
7576;DHT22;3829;50.798;4.358;2023-02-11T05:37:46;7.50;99.90
7576;DHT22;3829;50.798;4.358;2023-02-11T05:40:12;7.60;99.90
7576;DHT22;3829;50.798;4.358;2023-02-11T05:42:38;7.50;99.90
7576;DHT22;3829;50.798;4.358;2023-02-11T05:45:04;7.50;99.90
7576;DHT22;3829;50.798;4.358;2023-02-11T05:47:29;7.50;99.90
7576;DHT22;3829;50.798;4.358;2023-02-11T05:49:55;7.50;99.90
7576;DHT22;3829;50.798;4.358;2023-02-11T05:52:21;7.60;99.90
7576;DHT22;3829;50.798;4.358;2023-02-11T05:54:47;7.60;99.90
7576;DHT22;3829;50.798;4.358;2023-02-11T05:57:13;7.50;99.90
7576;DHT22;3829;50.798;4.358;2023-02-11T05:59:39;7.50;99.90
7576;DHT22;3829;50.798;4.358;2023-02-11T06:02:05;7.40;99.90
7576;DHT22;3829;50.798;4.358;2023-02-11T06:04:32;7.40;99.90
7576;DHT22;3829;50.798;4.358;2023-02-11T06:06:58;7.40;99.90
7576;DHT22;3829;50.798;4.358;2023-02-11T06:09:23;7.30;99.90
7576;DHT22;3829;50.798;4.358;2023-02-11T06:11:49;7.30;99.90
7576;DHT22;3829;50.798;4.358;2023-02-11T06:14:15;7.40;99.90
7576;DHT22;3829;50.798;4.358;2023-02-11T06:16:40;7.30;99.90
7576;DHT22;3829;50.798;4.358;2023-02-11T06:19:06;7.40;99.90
7576;DHT22;3829;50.798;4.358;2023-02-11T06:21:31;7.30;99.90
7576;DHT22;3829;50.798;4.358;2023-02-11T06:23:57;7.20;99.90
7576;DHT22;3829;50.798;4.358;2023-02-11T06:26:23;7.20;99.90
7576;DHT22;3829;50.798;4.358;2023-02-11T06:28:48;7.10;99.90
7576;DHT22;3829;50.798;4.358;2023-02-11T06:31:14;7.10;99.90
7576;DHT22;3829;50.798;4.358;2023-02-11T06:33:40;7.20;99.90
7576;DHT22;3829;50.798;4.358;2023-02-11T06:36:17;7.30;99.90
7576;DHT22;3829;50.798;4.358;2023-02-11T06:38:43;7.40;99.90
7576;DHT22;3829;50.798;4.358;2023-02-11T06:41:13;7.40;99.90
7576;DHT22;3829;50.798;4.358;2023-02-11T06:43:39;7.30;99.90
7576;DHT22;3829;50.798;4.358;2023-02-11T06:46:06;7.30;99.90
7576;DHT22;3829;50.798;4.358;2023-02-11T06:48:32;7.30;99.90
7576;DHT22;3829;50.798;4.358;2023-02-11T06:51:02;7.20;99.90
7576;DHT22;3829;50.798;4.358;2023-02-11T06:53:29;7.30;99.90
7576;DHT22;3829;50.798;4.358;2023-02-11T06:55:55;7.30;99.90
7576;DHT22;3829;50.798;4.358;2023-02-11T06:58:21;7.30;99.90
7576;DHT22;3829;50.798;4.358;2023-02-11T07:00:47;7.30;99.90
7576;DHT22;3829;50.798;4.358;2023-02-11T07:03:12;7.40;99.90
7576;DHT22;3829;50.798;4.358;2023-02-11T07:05:43;7.40;99.90
7576;DHT22;3829;50.798;4.358;2023-02-11T07:08:09;7.30;99.90
7576;DHT22;3829;50.798;4.358;2023-02-11T07:10:34;7.20;99.90
7576;DHT22;3829;50.798;4.358;2023-02-11T07:13:00;7.20;99.90
7576;DHT22;3829;50.798;4.358;2023-02-11T07:15:26;7.20;99.90
7576;DHT22;3829;50.798;4.358;2023-02-11T07:17:51;7.30;99.90
7576;DHT22;3829;50.798;4.358;2023-02-11T07:20:17;7.30;99.90
7576;DHT22;3829;50.798;4.358;2023-02-11T07:22:42;7.30;99.90
7576;DHT22;3829;50.798;4.358;2023-02-11T07:25:08;7.40;99.90
7576;DHT22;3829;50.798;4.358;2023-02-11T07:27:35;7.40;99.90
7576;DHT22;3829;50.798;4.358;2023-02-11T07:30:01;7.30;99.90
7576;DHT22;3829;50.798;4.358;2023-02-11T07:32:26;7.40;99.90
7576;DHT22;3829;50.798;4.358;2023-02-11T07:34:52;7.40;99.90
7576;DHT22;3829;50.798;4.358;2023-02-11T07:37:18;7.60;99.90
7576;DHT22;3829;50.798;4.358;2023-02-11T07:39:43;7.60;99.90
7576;DHT22;3829;50.798;4.358;2023-02-11T07:42:09;7.60;99.90
7576;DHT22;3829;50.798;4.358;2023-02-11T07:44:34;7.70;99.90
7576;DHT22;3829;50.798;4.358;2023-02-11T07:47:01;7.70;99.90
7576;DHT22;3829;50.798;4.358;2023-02-11T07:49:27;7.60;99.90
7576;DHT22;3829;50.798;4.358;2023-02-11T07:51:52;7.80;99.90
7576;DHT22;3829;50.798;4.358;2023-02-11T07:54:18;7.80;99.90
7576;DHT22;3829;50.798;4.358;2023-02-11T07:56:44;7.80;99.90
7576;DHT22;3829;50.798;4.358;2023-02-11T07:59:10;7.60;99.90
7576;DHT22;3829;50.798;4.358;2023-02-11T08:01:35;7.60;99.90
7576;DHT22;3829;50.798;4.358;2023-02-11T08:04:02;7.60;99.90
7576;DHT22;3829;50.798;4.358;2023-02-11T08:06:30;7.60;99.90
7576;DHT22;3829;50.798;4.358;2023-02-11T08:08:56;7.60;99.90
7576;DHT22;3829;50.798;4.358;2023-02-11T08:11:27;7.70;99.90
7576;DHT22;3829;50.798;4.358;2023-02-11T08:13:54;7.80;99.90
7576;DHT22;3829;50.798;4.358;2023-02-11T08:16:22;7.80;99.90
7576;DHT22;3829;50.798;4.358;2023-02-11T08:18:49;7.90;99.90
7576;DHT22;3829;50.798;4.358;2023-02-11T08:21:15;7.90;99.90
7576;DHT22;3829;50.798;4.358;2023-02-11T08:23:42;7.90;99.90
7576;DHT22;3829;50.798;4.358;2023-02-11T08:26:14;7.80;99.90
7576;DHT22;3829;50.798;4.358;2023-02-11T08:28:41;7.80;99.90
7576;DHT22;3829;50.798;4.358;2023-02-11T08:31:10;7.90;99.90
7576;DHT22;3829;50.798;4.358;2023-02-11T08:33:36;7.90;99.90
7576;DHT22;3829;50.798;4.358;2023-02-11T08:36:08;8.00;99.90
7576;DHT22;3829;50.798;4.358;2023-02-11T08:38:33;8.00;99.90
7576;DHT22;3829;50.798;4.358;2023-02-11T08:40:59;8.00;99.90
7576;DHT22;3829;50.798;4.358;2023-02-11T08:43:25;8.10;99.90
7576;DHT22;3829;50.798;4.358;2023-02-11T08:45:51;8.00;99.90
7576;DHT22;3829;50.798;4.358;2023-02-11T08:48:16;8.10;99.90
7576;DHT22;3829;50.798;4.358;2023-02-11T08:50:42;8.10;99.90
7576;DHT22;3829;50.798;4.358;2023-02-11T08:53:07;8.10;99.90
7576;DHT22;3829;50.798;4.358;2023-02-11T08:55:33;8.20;99.90
7576;DHT22;3829;50.798;4.358;2023-02-11T08:57:59;8.20;99.90
7576;DHT22;3829;50.798;4.358;2023-02-11T09:00:24;8.10;99.90
7576;DHT22;3829;50.798;4.358;2023-02-11T09:02:50;8.20;99.90
7576;DHT22;3829;50.798;4.358;2023-02-11T09:05:16;8.20;99.90
7576;DHT22;3829;50.798;4.358;2023-02-11T09:07:41;8.30;99.90
7576;DHT22;3829;50.798;4.358;2023-02-11T09:10:07;8.30;99.90
7576;DHT22;3829;50.798;4.358;2023-02-11T09:12:33;8.20;99.90
7576;DHT22;3829;50.798;4.358;2023-02-11T09:14:58;8.20;99.90
7576;DHT22;3829;50.798;4.358;2023-02-11T09:17:24;8.30;99.90
7576;DHT22;3829;50.798;4.358;2023-02-11T09:19:50;8.30;99.90
7576;DHT22;3829;50.798;4.358;2023-02-11T09:22:15;8.30;99.90
7576;DHT22;3829;50.798;4.358;2023-02-11T09:24:41;8.30;99.90
7576;DHT22;3829;50.798;4.358;2023-02-11T09:27:06;8.40;99.90
7576;DHT22;3829;50.798;4.358;2023-02-11T09:29:32;8.50;99.90
7576;DHT22;3829;50.798;4.358;2023-02-11T09:31:58;8.60;99.90
7576;DHT22;3829;50.798;4.358;2023-02-11T09:34:23;8.60;99.90
7576;DHT22;3829;50.798;4.358;2023-02-11T09:36:49;8.50;99.90
7576;DHT22;3829;50.798;4.358;2023-02-11T09:39:16;8.50;99.90
7576;DHT22;3829;50.798;4.358;2023-02-11T09:44:25;8.50;99.90
7576;DHT22;3829;50.798;4.358;2023-02-11T09:46:58;8.50;99.90
7576;DHT22;3829;50.798;4.358;2023-02-11T09:49:43;8.60;99.90
7576;DHT22;3829;50.798;4.358;2023-02-11T09:52:39;8.60;99.90
7576;DHT22;3829;50.798;4.358;2023-02-11T09:55:29;8.60;99.90
7576;DHT22;3829;50.798;4.358;2023-02-11T09:57:56;8.60;99.90
7576;DHT22;3829;50.798;4.358;2023-02-11T10:05:38;8.70;99.90
7576;DHT22;3829;50.798;4.358;2023-02-11T10:11:11;8.80;99.90
7576;DHT22;3829;50.798;4.358;2023-02-11T10:24:25;8.80;99.90
7576;DHT22;3829;50.798;4.358;2023-02-11T10:26:53;8.90;99.90
7576;DHT22;3829;50.798;4.358;2023-02-11T10:29:36;9.00;99.90
7576;DHT22;3829;50.798;4.358;2023-02-11T10:32:06;9.10;99.90
7576;DHT22;3829;50.798;4.358;2023-02-11T10:34:39;9.20;99.90
7576;DHT22;3829;50.798;4.358;2023-02-11T10:37:05;9.20;99.90
7576;DHT22;3829;50.798;4.358;2023-02-11T10:39:31;9.30;99.90
7576;DHT22;3829;50.798;4.358;2023-02-11T10:42:08;9.20;99.90
7576;DHT22;3829;50.798;4.358;2023-02-11T10:44:38;9.30;99.90
7576;DHT22;3829;50.798;4.358;2023-02-11T10:47:11;9.40;99.90
7576;DHT22;3829;50.798;4.358;2023-02-11T10:49:40;9.40;99.90
7576;DHT22;3829;50.798;4.358;2023-02-11T10:57:35;9.10;99.90
7576;DHT22;3829;50.798;4.358;2023-02-11T11:00:07;9.20;99.90
7576;DHT22;3829;50.798;4.358;2023-02-11T11:02:35;9.30;99.90
7576;DHT22;3829;50.798;4.358;2023-02-11T11:05:18;9.40;99.90
7576;DHT22;3829;50.798;4.358;2023-02-11T11:07:59;9.40;99.90
7576;DHT22;3829;50.798;4.358;2023-02-11T11:10:41;9.40;99.90
7576;DHT22;3829;50.798;4.358;2023-02-11T11:16:36;9.10;99.90
7576;DHT22;3829;50.798;4.358;2023-02-11T11:21:43;9.30;99.90
7576;DHT22;3829;50.798;4.358;2023-02-11T11:24:38;9.30;99.90
7576;DHT22;3829;50.798;4.358;2023-02-11T11:27:05;9.30;99.90
7576;DHT22;3829;50.798;4.358;2023-02-11T11:32:04;9.40;99.90
7576;DHT22;3829;50.798;4.358;2023-02-11T11:34:36;9.30;99.90
7576;DHT22;3829;50.798;4.358;2023-02-11T11:37:25;9.30;99.90
7576;DHT22;3829;50.798;4.358;2023-02-11T11:42:28;9.40;99.90
7576;DHT22;3829;50.798;4.358;2023-02-11T11:51:03;9.50;99.90
7576;DHT22;3829;50.798;4.358;2023-02-11T11:56:25;9.60;99.90
7576;DHT22;3829;50.798;4.358;2023-02-11T11:58:52;9.60;99.90
7576;DHT22;3829;50.798;4.358;2023-02-11T12:15:31;9.70;99.90
7576;DHT22;3829;50.798;4.358;2023-02-11T12:21:19;9.70;99.90
7576;DHT22;3829;50.798;4.358;2023-02-11T12:24:12;9.60;99.90
7576;DHT22;3829;50.798;4.358;2023-02-11T12:26:50;9.60;99.90
7576;DHT22;3829;50.798;4.358;2023-02-11T12:29:40;9.60;99.90
7576;DHT22;3829;50.798;4.358;2023-02-11T12:32:27;9.60;99.90
7576;DHT22;3829;50.798;4.358;2023-02-11T12:37:36;9.80;99.90
7576;DHT22;3829;50.798;4.358;2023-02-11T12:40:17;9.90;99.90
7576;DHT22;3829;50.798;4.358;2023-02-11T12:46:21;9.80;99.90
7576;DHT22;3829;50.798;4.358;2023-02-11T12:48:54;9.90;99.90
7576;DHT22;3829;50.798;4.358;2023-02-11T12:54:19;10.00;99.90
7576;DHT22;3829;50.798;4.358;2023-02-11T12:59:37;10.20;99.90
7576;DHT22;3829;50.798;4.358;2023-02-11T13:02:13;10.10;99.90
7576;DHT22;3829;50.798;4.358;2023-02-11T13:04:45;10.10;99.90
7576;DHT22;3829;50.798;4.358;2023-02-11T13:07:23;10.10;99.90
7576;DHT22;3829;50.798;4.358;2023-02-11T13:10:03;10.00;99.90
7576;DHT22;3829;50.798;4.358;2023-02-11T13:12:32;10.00;99.90
7576;DHT22;3829;50.798;4.358;2023-02-11T13:15:18;10.10;99.90
7576;DHT22;3829;50.798;4.358;2023-02-11T13:18:09;10.00;99.90
7576;DHT22;3829;50.798;4.358;2023-02-11T13:24:06;10.10;99.90
7576;DHT22;3829;50.798;4.358;2023-02-11T13:32:03;10.10;99.90
7576;DHT22;3829;50.798;4.358;2023-02-11T13:37:25;10.00;99.90
7576;DHT22;3829;50.798;4.358;2023-02-11T13:39:58;10.00;99.90
7576;DHT22;3829;50.798;4.358;2023-02-11T13:42:25;10.00;99.90
7576;DHT22;3829;50.798;4.358;2023-02-11T13:44:51;10.00;99.90
7576;DHT22;3829;50.798;4.358;2023-02-11T13:47:29;10.10;99.90
7576;DHT22;3829;50.798;4.358;2023-02-11T13:49:56;10.00;99.90
7576;DHT22;3829;50.798;4.358;2023-02-11T13:52:31;10.00;99.90
7576;DHT22;3829;50.798;4.358;2023-02-11T13:55:08;10.00;99.90
7576;DHT22;3829;50.798;4.358;2023-02-11T13:57:40;10.00;99.90
7576;DHT22;3829;50.798;4.358;2023-02-11T14:14:20;10.40;99.90
7576;DHT22;3829;50.798;4.358;2023-02-11T14:19:43;10.50;99.90
7576;DHT22;3829;50.798;4.358;2023-02-11T14:33:12;10.40;99.90
7576;DHT22;3829;50.798;4.358;2023-02-11T14:41:37;10.40;99.90
7576;DHT22;3829;50.798;4.358;2023-02-11T14:44:10;10.50;99.90
7576;DHT22;3829;50.798;4.358;2023-02-11T14:46:43;10.40;99.90
7576;DHT22;3829;50.798;4.358;2023-02-11T14:49:29;10.40;99.90
7576;DHT22;3829;50.798;4.358;2023-02-11T14:52:02;10.40;99.90
7576;DHT22;3829;50.798;4.358;2023-02-11T14:54:29;10.40;99.90
7576;DHT22;3829;50.798;4.358;2023-02-11T14:57:13;10.40;99.90
7576;DHT22;3829;50.798;4.358;2023-02-11T14:59:51;10.40;99.90
7576;DHT22;3829;50.798;4.358;2023-02-11T15:02:27;10.50;99.90
7576;DHT22;3829;50.798;4.358;2023-02-11T15:04:53;10.50;99.90
7576;DHT22;3829;50.798;4.358;2023-02-11T15:07:20;10.50;99.90
7576;DHT22;3829;50.798;4.358;2023-02-11T15:09:50;10.50;99.90
7576;DHT22;3829;50.798;4.358;2023-02-11T15:12:22;10.40;99.90
7576;DHT22;3829;50.798;4.358;2023-02-11T15:14:50;10.40;99.90
7576;DHT22;3829;50.798;4.358;2023-02-11T15:17:21;10.20;99.90
7576;DHT22;3829;50.798;4.358;2023-02-11T15:19:53;10.20;99.90
7576;DHT22;3829;50.798;4.358;2023-02-11T15:22:22;10.20;99.90
7576;DHT22;3829;50.798;4.358;2023-02-11T15:25:11;10.10;99.90
7576;DHT22;3829;50.798;4.358;2023-02-11T15:27:47;10.20;99.90
7576;DHT22;3829;50.798;4.358;2023-02-11T15:32:49;10.20;99.90
7576;DHT22;3829;50.798;4.358;2023-02-11T15:35:15;10.20;99.90
7576;DHT22;3829;50.798;4.358;2023-02-11T15:37:43;10.30;99.90
7576;DHT22;3829;50.798;4.358;2023-02-11T15:40:21;10.30;99.90
7576;DHT22;3829;50.798;4.358;2023-02-11T15:43:04;10.30;99.90
7576;DHT22;3829;50.798;4.358;2023-02-11T15:50:33;10.30;99.90
7576;DHT22;3829;50.798;4.358;2023-02-11T15:55:41;10.30;99.90
7576;DHT22;3829;50.798;4.358;2023-02-11T15:58:08;10.30;99.90
7576;DHT22;3829;50.798;4.358;2023-02-11T16:00:36;10.30;99.90
7576;DHT22;3829;50.798;4.358;2023-02-11T16:03:02;10.20;99.90
7576;DHT22;3829;50.798;4.358;2023-02-11T16:05:35;10.20;99.90
7576;DHT22;3829;50.798;4.358;2023-02-11T16:08:26;10.20;99.90
7576;DHT22;3829;50.798;4.358;2023-02-11T16:10:56;10.20;99.90
7576;DHT22;3829;50.798;4.358;2023-02-11T16:13:23;10.30;99.90
7576;DHT22;3829;50.798;4.358;2023-02-11T16:15:53;10.30;99.90
7576;DHT22;3829;50.798;4.358;2023-02-11T16:18:29;10.30;99.90
7576;DHT22;3829;50.798;4.358;2023-02-11T16:20:57;10.30;99.90
7576;DHT22;3829;50.798;4.358;2023-02-11T16:23:29;10.30;99.90
7576;DHT22;3829;50.798;4.358;2023-02-11T16:26:33;10.30;99.90
7576;DHT22;3829;50.798;4.358;2023-02-11T16:29:15;10.30;99.90
7576;DHT22;3829;50.798;4.358;2023-02-11T16:31:44;10.20;99.90
7576;DHT22;3829;50.798;4.358;2023-02-11T16:34:21;10.20;99.90
7576;DHT22;3829;50.798;4.358;2023-02-11T16:36:48;10.20;99.90
7576;DHT22;3829;50.798;4.358;2023-02-11T16:39:16;10.20;99.90
7576;DHT22;3829;50.798;4.358;2023-02-11T16:41:42;10.20;99.90
7576;DHT22;3829;50.798;4.358;2023-02-11T16:44:08;10.10;99.90
7576;DHT22;3829;50.798;4.358;2023-02-11T16:46:33;10.20;99.90
7576;DHT22;3829;50.798;4.358;2023-02-11T16:49:11;10.10;99.90
7576;DHT22;3829;50.798;4.358;2023-02-11T16:51:40;10.10;99.90
7576;DHT22;3829;50.798;4.358;2023-02-11T16:54:08;10.20;99.90
7576;DHT22;3829;50.798;4.358;2023-02-11T16:56:34;10.20;99.90
7576;DHT22;3829;50.798;4.358;2023-02-11T16:59:00;10.20;99.90
7576;DHT22;3829;50.798;4.358;2023-02-11T17:01:25;10.10;99.90
7576;DHT22;3829;50.798;4.358;2023-02-11T17:03:51;10.10;99.90
7576;DHT22;3829;50.798;4.358;2023-02-11T17:06:21;10.00;99.90
7576;DHT22;3829;50.798;4.358;2023-02-11T17:08:47;9.90;99.90
7576;DHT22;3829;50.798;4.358;2023-02-11T17:11:12;9.90;99.90
7576;DHT22;3829;50.798;4.358;2023-02-11T17:13:41;9.80;99.90
7576;DHT22;3829;50.798;4.358;2023-02-11T17:16:27;9.80;99.90
7576;DHT22;3829;50.798;4.358;2023-02-11T17:18:54;9.80;99.90
7576;DHT22;3829;50.798;4.358;2023-02-11T17:21:19;9.90;99.90
7576;DHT22;3829;50.798;4.358;2023-02-11T17:23:45;9.90;99.90
7576;DHT22;3829;50.798;4.358;2023-02-11T17:26:10;9.90;99.90
7576;DHT22;3829;50.798;4.358;2023-02-11T17:28:36;9.90;99.90
7576;DHT22;3829;50.798;4.358;2023-02-11T17:31:06;9.80;99.90
7576;DHT22;3829;50.798;4.358;2023-02-11T17:33:32;9.80;99.90
7576;DHT22;3829;50.798;4.358;2023-02-11T17:35:58;9.80;99.90
7576;DHT22;3829;50.798;4.358;2023-02-11T17:38:23;9.80;99.90
7576;DHT22;3829;50.798;4.358;2023-02-11T17:40:59;9.80;99.90
7576;DHT22;3829;50.798;4.358;2023-02-11T17:43:25;9.80;99.90
7576;DHT22;3829;50.798;4.358;2023-02-11T17:45:51;9.70;99.90
7576;DHT22;3829;50.798;4.358;2023-02-11T17:48:16;9.60;99.90
7576;DHT22;3829;50.798;4.358;2023-02-11T17:50:42;9.70;99.90
7576;DHT22;3829;50.798;4.358;2023-02-11T17:53:08;9.70;99.90
7576;DHT22;3829;50.798;4.358;2023-02-11T17:55:34;9.60;99.90
7576;DHT22;3829;50.798;4.358;2023-02-11T17:58:00;9.60;99.90
7576;DHT22;3829;50.798;4.358;2023-02-11T18:00:26;9.50;99.90
7576;DHT22;3829;50.798;4.358;2023-02-11T18:02:53;9.50;99.90
7576;DHT22;3829;50.798;4.358;2023-02-11T18:05:19;9.60;99.90
7576;DHT22;3829;50.798;4.358;2023-02-11T18:07:45;9.60;99.90
7576;DHT22;3829;50.798;4.358;2023-02-11T18:10:12;9.60;99.90
7576;DHT22;3829;50.798;4.358;2023-02-11T18:12:38;9.60;99.90
7576;DHT22;3829;50.798;4.358;2023-02-11T18:15:04;9.60;99.90
7576;DHT22;3829;50.798;4.358;2023-02-11T18:17:29;9.50;99.90
7576;DHT22;3829;50.798;4.358;2023-02-11T18:19:56;9.60;99.90
7576;DHT22;3829;50.798;4.358;2023-02-11T18:22:22;9.70;99.90
7576;DHT22;3829;50.798;4.358;2023-02-11T18:24:53;9.70;99.90
7576;DHT22;3829;50.798;4.358;2023-02-11T18:27:20;9.80;99.90
7576;DHT22;3829;50.798;4.358;2023-02-11T18:29:46;9.80;99.90
7576;DHT22;3829;50.798;4.358;2023-02-11T18:32:12;9.70;99.90
7576;DHT22;3829;50.798;4.358;2023-02-11T18:34:41;9.90;99.90
7576;DHT22;3829;50.798;4.358;2023-02-11T18:37:06;9.70;99.90
7576;DHT22;3829;50.798;4.358;2023-02-11T18:39:32;9.80;99.90
7576;DHT22;3829;50.798;4.358;2023-02-11T18:41:57;9.70;99.90
7576;DHT22;3829;50.798;4.358;2023-02-11T18:44:25;9.70;99.90
7576;DHT22;3829;50.798;4.358;2023-02-11T18:46:51;9.70;99.90
7576;DHT22;3829;50.798;4.358;2023-02-11T18:49:18;9.70;99.90
7576;DHT22;3829;50.798;4.358;2023-02-11T18:51:44;9.70;99.90
7576;DHT22;3829;50.798;4.358;2023-02-11T18:54:10;9.70;99.90
7576;DHT22;3829;50.798;4.358;2023-02-11T18:56:35;9.70;99.90
7576;DHT22;3829;50.798;4.358;2023-02-11T18:59:01;9.70;99.90
7576;DHT22;3829;50.798;4.358;2023-02-11T19:01:29;9.80;99.90
7576;DHT22;3829;50.798;4.358;2023-02-11T19:03:57;9.80;99.90
7576;DHT22;3829;50.798;4.358;2023-02-11T19:06:27;9.80;99.90
7576;DHT22;3829;50.798;4.358;2023-02-11T19:08:55;9.80;99.90
7576;DHT22;3829;50.798;4.358;2023-02-11T19:11:21;9.80;99.90
7576;DHT22;3829;50.798;4.358;2023-02-11T19:14:07;9.80;99.90